sensor_id;sensor_type;location;lat;lon;timestamp;P1;durP1;ratioP1;P2;durP2;ratioP2
64637;SDS011;51049;45.046;38.950;2023-06-04T00:02:09;7.05;;;3.03;;
64637;SDS011;51049;45.046;38.950;2023-06-04T00:04:35;5.75;;;3.10;;
64637;SDS011;51049;45.046;38.950;2023-06-04T00:07:01;6.53;;;3.10;;
64637;SDS011;51049;45.046;38.950;2023-06-04T00:09:27;9.68;;;3.20;;
64637;SDS011;51049;45.046;38.950;2023-06-04T00:11:53;7.45;;;3.30;;
64637;SDS011;51049;45.046;38.950;2023-06-04T00:14:19;5.53;;;2.95;;
64637;SDS011;51049;45.046;38.950;2023-06-04T00:16:45;8.07;;;3.30;;
64637;SDS011;51049;45.046;38.950;2023-06-04T00:19:11;8.73;;;3.50;;
64637;SDS011;51049;45.046;38.950;2023-06-04T00:21:37;7.35;;;3.20;;
64637;SDS011;51049;45.046;38.950;2023-06-04T00:24:03;7.35;;;2.92;;
64637;SDS011;51049;45.046;38.950;2023-06-04T00:26:29;6.82;;;3.22;;
64637;SDS011;51049;45.046;38.950;2023-06-04T00:28:55;4.90;;;3.08;;
64637;SDS011;51049;45.046;38.950;2023-06-04T00:31:21;6.00;;;3.40;;
64637;SDS011;51049;45.046;38.950;2023-06-04T00:33:47;8.05;;;3.30;;
64637;SDS011;51049;45.046;38.950;2023-06-04T00:36:13;8.43;;;3.65;;
64637;SDS011;51049;45.046;38.950;2023-06-04T00:38:40;6.68;;;3.65;;
64637;SDS011;51049;45.046;38.950;2023-06-04T00:41:05;7.88;;;3.20;;
64637;SDS011;51049;45.046;38.950;2023-06-04T00:43:31;8.40;;;3.08;;
64637;SDS011;51049;45.046;38.950;2023-06-04T00:45:58;5.80;;;3.10;;
64637;SDS011;51049;45.046;38.950;2023-06-04T00:48:26;6.00;;;3.13;;
64637;SDS011;51049;45.046;38.950;2023-06-04T00:50:52;6.18;;;3.28;;
64637;SDS011;51049;45.046;38.950;2023-06-04T00:53:23;7.38;;;3.58;;
64637;SDS011;51049;45.046;38.950;2023-06-04T00:55:50;8.00;;;3.67;;
64637;SDS011;51049;45.046;38.950;2023-06-04T00:58:17;6.38;;;3.20;;
64637;SDS011;51049;45.046;38.950;2023-06-04T01:00:43;10.07;;;3.17;;
64637;SDS011;51049;45.046;38.950;2023-06-04T01:03:14;5.90;;;2.72;;
64637;SDS011;51049;45.046;38.950;2023-06-04T01:08:58;6.85;;;3.20;;
64637;SDS011;51049;45.046;38.950;2023-06-04T01:11:35;6.82;;;3.13;;
64637;SDS011;51049;45.046;38.950;2023-06-04T01:14:02;5.82;;;2.90;;
64637;SDS011;51049;45.046;38.950;2023-06-04T01:16:35;6.82;;;3.40;;
64637;SDS011;51049;45.046;38.950;2023-06-04T01:19:53;5.07;;;3.17;;
64637;SDS011;51049;45.046;38.950;2023-06-04T01:22:17;8.68;;;3.42;;
64637;SDS011;51049;45.046;38.950;2023-06-04T01:25:05;8.43;;;2.97;;
64637;SDS011;51049;45.046;38.950;2023-06-04T01:27:54;12.40;;;3.55;;
64637;SDS011;51049;45.046;38.950;2023-06-04T01:30:26;7.90;;;3.33;;
64637;SDS011;51049;45.046;38.950;2023-06-04T01:32:55;6.93;;;3.20;;
64637;SDS011;51049;45.046;38.950;2023-06-04T01:35:22;9.40;;;3.60;;
64637;SDS011;51049;45.046;38.950;2023-06-04T01:37:48;7.03;;;3.03;;
64637;SDS011;51049;45.046;38.950;2023-06-04T01:40:14;7.18;;;3.55;;
64637;SDS011;51049;45.046;38.950;2023-06-04T01:42:41;8.77;;;3.10;;
64637;SDS011;51049;45.046;38.950;2023-06-04T01:45:08;7.05;;;3.22;;
64637;SDS011;51049;45.046;38.950;2023-06-04T01:47:34;6.97;;;3.17;;
64637;SDS011;51049;45.046;38.950;2023-06-04T01:50:02;11.38;;;3.53;;
64637;SDS011;51049;45.046;38.950;2023-06-04T01:52:31;6.07;;;3.38;;
64637;SDS011;51049;45.046;38.950;2023-06-04T01:54:58;7.15;;;3.33;;
64637;SDS011;51049;45.046;38.950;2023-06-04T01:57:24;8.07;;;3.70;;
64637;SDS011;51049;45.046;38.950;2023-06-04T01:59:51;6.70;;;2.90;;
64637;SDS011;51049;45.046;38.950;2023-06-04T02:02:17;6.18;;;3.00;;
64637;SDS011;51049;45.046;38.950;2023-06-04T02:04:43;6.60;;;3.55;;
64637;SDS011;51049;45.046;38.950;2023-06-04T02:07:10;5.68;;;3.10;;
64637;SDS011;51049;45.046;38.950;2023-06-04T02:09:39;8.30;;;3.30;;
64637;SDS011;51049;45.046;38.950;2023-06-04T02:12:05;11.73;;;3.28;;
64637;SDS011;51049;45.046;38.950;2023-06-04T02:14:31;9.25;;;3.47;;
64637;SDS011;51049;45.046;38.950;2023-06-04T02:16:57;9.50;;;3.50;;
64637;SDS011;51049;45.046;38.950;2023-06-04T02:19:24;5.82;;;3.08;;
64637;SDS011;51049;45.046;38.950;2023-06-04T02:21:51;5.35;;;3.15;;
64637;SDS011;51049;45.046;38.950;2023-06-04T02:24:18;6.75;;;3.10;;
64637;SDS011;51049;45.046;38.950;2023-06-04T02:26:44;5.68;;;2.80;;
64637;SDS011;51049;45.046;38.950;2023-06-04T02:29:10;5.88;;;2.95;;
64637;SDS011;51049;45.046;38.950;2023-06-04T02:31:36;5.53;;;3.17;;
64637;SDS011;51049;45.046;38.950;2023-06-04T02:34:02;5.45;;;2.70;;
64637;SDS011;51049;45.046;38.950;2023-06-04T02:36:29;7.97;;;2.92;;
64637;SDS011;51049;45.046;38.950;2023-06-04T02:38:55;7.88;;;3.30;;
64637;SDS011;51049;45.046;38.950;2023-06-04T02:41:23;7.50;;;3.13;;
64637;SDS011;51049;45.046;38.950;2023-06-04T02:43:50;6.63;;;3.20;;
64637;SDS011;51049;45.046;38.950;2023-06-04T02:46:16;6.63;;;2.90;;
64637;SDS011;51049;45.046;38.950;2023-06-04T02:48:42;6.70;;;3.08;;
64637;SDS011;51049;45.046;38.950;2023-06-04T02:51:08;8.15;;;3.00;;
64637;SDS011;51049;45.046;38.950;2023-06-04T02:53:36;8.68;;;3.33;;
64637;SDS011;51049;45.046;38.950;2023-06-04T02:56:02;7.03;;;3.25;;
64637;SDS011;51049;45.046;38.950;2023-06-04T02:58:28;5.80;;;3.10;;
64637;SDS011;51049;45.046;38.950;2023-06-04T03:00:54;9.77;;;3.60;;
64637;SDS011;51049;45.046;38.950;2023-06-04T03:03:20;6.78;;;3.53;;
64637;SDS011;51049;45.046;38.950;2023-06-04T03:05:47;7.80;;;3.22;;
64637;SDS011;51049;45.046;38.950;2023-06-04T03:08:13;5.82;;;3.38;;
64637;SDS011;51049;45.046;38.950;2023-06-04T03:10:39;5.47;;;3.10;;
64637;SDS011;51049;45.046;38.950;2023-06-04T03:13:05;9.75;;;3.55;;
64637;SDS011;51049;45.046;38.950;2023-06-04T03:15:31;6.90;;;3.55;;
64637;SDS011;51049;45.046;38.950;2023-06-04T03:17:57;10.70;;;3.25;;
64637;SDS011;51049;45.046;38.950;2023-06-04T03:20:22;10.60;;;3.25;;
64637;SDS011;51049;45.046;38.950;2023-06-04T03:22:50;2.58;;;1.00;;
64637;SDS011;51049;45.046;38.950;2023-06-04T03:25:16;6.50;;;1.45;;
64637;SDS011;51049;45.046;38.950;2023-06-04T03:27:42;4.72;;;1.38;;
64637;SDS011;51049;45.046;38.950;2023-06-04T03:30:08;6.18;;;2.78;;
64637;SDS011;51049;45.046;38.950;2023-06-04T03:32:43;7.78;;;3.47;;
64637;SDS011;51049;45.046;38.950;2023-06-04T03:35:11;10.73;;;4.32;;
64637;SDS011;51049;45.046;38.950;2023-06-04T03:37:37;10.98;;;5.03;;
64637;SDS011;51049;45.046;38.950;2023-06-04T03:40:04;18.58;;;5.72;;
64637;SDS011;51049;45.046;38.950;2023-06-04T03:42:33;13.30;;;5.28;;
64637;SDS011;51049;45.046;38.950;2023-06-04T03:45:00;12.77;;;6.30;;
64637;SDS011;51049;45.046;38.950;2023-06-04T03:47:27;17.58;;;7.95;;
64637;SDS011;51049;45.046;38.950;2023-06-04T03:49:54;16.33;;;7.60;;
64637;SDS011;51049;45.046;38.950;2023-06-04T03:52:20;15.88;;;6.40;;
64637;SDS011;51049;45.046;38.950;2023-06-04T03:54:46;14.60;;;7.13;;
64637;SDS011;51049;45.046;38.950;2023-06-04T03:57:12;15.48;;;7.53;;
64637;SDS011;51049;45.046;38.950;2023-06-04T03:59:38;16.77;;;7.65;;
64637;SDS011;51049;45.046;38.950;2023-06-04T04:02:04;16.00;;;8.30;;
64637;SDS011;51049;45.046;38.950;2023-06-04T04:04:30;15.55;;;7.43;;
64637;SDS011;51049;45.046;38.950;2023-06-04T04:06:58;17.00;;;8.45;;
64637;SDS011;51049;45.046;38.950;2023-06-04T04:09:26;19.38;;;8.20;;
64637;SDS011;51049;45.046;38.950;2023-06-04T04:11:52;8.57;;;5.10;;
64637;SDS011;51049;45.046;38.950;2023-06-04T04:14:19;19.75;;;7.65;;
64637;SDS011;51049;45.046;38.950;2023-06-04T04:16:45;12.38;;;5.90;;
64637;SDS011;51049;45.046;38.950;2023-06-04T04:19:11;12.90;;;5.88;;
64637;SDS011;51049;45.046;38.950;2023-06-04T04:21:38;14.40;;;6.28;;
64637;SDS011;51049;45.046;38.950;2023-06-04T04:24:04;12.55;;;6.50;;
64637;SDS011;51049;45.046;38.950;2023-06-04T04:26:31;13.52;;;7.28;;
64637;SDS011;51049;45.046;38.950;2023-06-04T04:28:58;13.10;;;6.40;;
64637;SDS011;51049;45.046;38.950;2023-06-04T04:31:28;12.30;;;5.82;;
64637;SDS011;51049;45.046;38.950;2023-06-04T04:33:56;9.75;;;4.22;;
64637;SDS011;51049;45.046;38.950;2023-06-04T04:36:22;12.82;;;5.95;;
64637;SDS011;51049;45.046;38.950;2023-06-04T04:38:48;11.55;;;6.18;;
64637;SDS011;51049;45.046;38.950;2023-06-04T04:41:22;12.48;;;6.45;;
64637;SDS011;51049;45.046;38.950;2023-06-04T04:43:49;12.40;;;6.65;;
64637;SDS011;51049;45.046;38.950;2023-06-04T04:46:23;13.88;;;6.85;;
64637;SDS011;51049;45.046;38.950;2023-06-04T04:48:50;14.18;;;7.65;;
64637;SDS011;51049;45.046;38.950;2023-06-04T04:51:16;10.57;;;6.07;;
64637;SDS011;51049;45.046;38.950;2023-06-04T04:53:42;13.93;;;6.60;;
64637;SDS011;51049;45.046;38.950;2023-06-04T04:56:08;14.23;;;7.68;;
64637;SDS011;51049;45.046;38.950;2023-06-04T04:58:38;12.02;;;6.95;;
64637;SDS011;51049;45.046;38.950;2023-06-04T05:01:04;15.90;;;8.63;;
64637;SDS011;51049;45.046;38.950;2023-06-04T05:03:30;16.92;;;8.88;;
64637;SDS011;51049;45.046;38.950;2023-06-04T05:05:56;20.40;;;9.35;;
64637;SDS011;51049;45.046;38.950;2023-06-04T05:08:22;17.92;;;9.73;;
64637;SDS011;51049;45.046;38.950;2023-06-04T05:10:49;16.20;;;9.45;;
64637;SDS011;51049;45.046;38.950;2023-06-04T05:13:16;17.05;;;9.18;;
64637;SDS011;51049;45.046;38.950;2023-06-04T05:15:50;16.58;;;7.93;;
64637;SDS011;51049;45.046;38.950;2023-06-04T05:18:20;19.42;;;9.18;;
64637;SDS011;51049;45.046;38.950;2023-06-04T05:20:47;16.08;;;7.60;;
64637;SDS011;51049;45.046;38.950;2023-06-04T05:23:13;17.85;;;8.05;;
64637;SDS011;51049;45.046;38.950;2023-06-04T05:25:42;18.35;;;7.95;;
64637;SDS011;51049;45.046;38.950;2023-06-04T05:28:08;12.38;;;7.15;;
64637;SDS011;51049;45.046;38.950;2023-06-04T05:30:35;11.43;;;6.03;;
64637;SDS011;51049;45.046;38.950;2023-06-04T05:33:08;11.15;;;5.40;;
64637;SDS011;51049;45.046;38.950;2023-06-04T05:35:48;14.77;;;5.30;;
64637;SDS011;51049;45.046;38.950;2023-06-04T05:38:14;11.40;;;5.03;;
64637;SDS011;51049;45.046;38.950;2023-06-04T05:40:46;10.70;;;6.18;;
64637;SDS011;51049;45.046;38.950;2023-06-04T05:43:13;24.05;;;6.72;;
64637;SDS011;51049;45.046;38.950;2023-06-04T05:45:39;14.98;;;7.45;;
64637;SDS011;51049;45.046;38.950;2023-06-04T05:48:05;19.17;;;7.55;;
64637;SDS011;51049;45.046;38.950;2023-06-04T05:50:31;19.90;;;8.50;;
64637;SDS011;51049;45.046;38.950;2023-06-04T05:52:58;19.40;;;9.90;;
64637;SDS011;51049;45.046;38.950;2023-06-04T05:55:24;13.43;;;7.38;;
64637;SDS011;51049;45.046;38.950;2023-06-04T05:57:50;18.73;;;8.63;;
64637;SDS011;51049;45.046;38.950;2023-06-04T06:00:17;15.27;;;7.47;;
64637;SDS011;51049;45.046;38.950;2023-06-04T06:02:46;16.02;;;8.05;;
64637;SDS011;51049;45.046;38.950;2023-06-04T06:05:26;16.63;;;8.05;;
64637;SDS011;51049;45.046;38.950;2023-06-04T06:07:52;15.77;;;7.63;;
64637;SDS011;51049;45.046;38.950;2023-06-04T06:10:18;13.60;;;7.05;;
64637;SDS011;51049;45.046;38.950;2023-06-04T06:12:44;12.60;;;6.30;;
64637;SDS011;51049;45.046;38.950;2023-06-04T06:15:10;12.77;;;6.05;;
64637;SDS011;51049;45.046;38.950;2023-06-04T06:17:38;11.52;;;6.50;;
64637;SDS011;51049;45.046;38.950;2023-06-04T06:20:05;13.73;;;6.30;;
64637;SDS011;51049;45.046;38.950;2023-06-04T06:22:32;15.93;;;6.57;;
64637;SDS011;51049;45.046;38.950;2023-06-04T06:24:59;11.13;;;6.13;;
64637;SDS011;51049;45.046;38.950;2023-06-04T06:27:25;13.38;;;6.78;;
64637;SDS011;51049;45.046;38.950;2023-06-04T06:29:52;7.47;;;4.47;;
64637;SDS011;51049;45.046;38.950;2023-06-04T06:32:18;12.20;;;4.80;;
64637;SDS011;51049;45.046;38.950;2023-06-04T06:34:44;8.52;;;4.47;;
64637;SDS011;51049;45.046;38.950;2023-06-04T06:37:09;10.18;;;5.32;;
64637;SDS011;51049;45.046;38.950;2023-06-04T06:39:35;8.52;;;5.10;;
64637;SDS011;51049;45.046;38.950;2023-06-04T06:42:01;14.45;;;6.65;;
64637;SDS011;51049;45.046;38.950;2023-06-04T06:44:33;11.48;;;6.07;;
64637;SDS011;51049;45.046;38.950;2023-06-04T06:46:59;10.68;;;6.03;;
64637;SDS011;51049;45.046;38.950;2023-06-04T06:49:25;10.35;;;4.32;;
64637;SDS011;51049;45.046;38.950;2023-06-04T06:51:51;9.95;;;5.38;;
64637;SDS011;51049;45.046;38.950;2023-06-04T06:54:17;13.55;;;4.80;;
64637;SDS011;51049;45.046;38.950;2023-06-04T06:56:47;12.75;;;6.38;;
64637;SDS011;51049;45.046;38.950;2023-06-04T06:59:15;10.38;;;4.97;;
64637;SDS011;51049;45.046;38.950;2023-06-04T07:01:40;12.05;;;6.57;;
64637;SDS011;51049;45.046;38.950;2023-06-04T07:04:06;14.52;;;5.88;;
64637;SDS011;51049;45.046;38.950;2023-06-04T07:06:33;10.90;;;6.15;;
64637;SDS011;51049;45.046;38.950;2023-06-04T07:09:01;14.82;;;6.80;;
64637;SDS011;51049;45.046;38.950;2023-06-04T07:11:27;17.73;;;7.32;;
64637;SDS011;51049;45.046;38.950;2023-06-04T07:13:53;14.77;;;8.10;;
64637;SDS011;51049;45.046;38.950;2023-06-04T07:16:18;10.88;;;6.53;;
64637;SDS011;51049;45.046;38.950;2023-06-04T07:18:47;14.45;;;7.47;;
64637;SDS011;51049;45.046;38.950;2023-06-04T07:21:14;10.63;;;6.78;;
64637;SDS011;51049;45.046;38.950;2023-06-04T07:23:40;11.93;;;7.10;;
64637;SDS011;51049;45.046;38.950;2023-06-04T07:26:06;17.00;;;8.70;;
64637;SDS011;51049;45.046;38.950;2023-06-04T07:28:32;11.10;;;6.47;;
64637;SDS011;51049;45.046;38.950;2023-06-04T07:30:58;13.85;;;8.18;;
64637;SDS011;51049;45.046;38.950;2023-06-04T07:33:24;15.40;;;7.95;;
64637;SDS011;51049;45.046;38.950;2023-06-04T07:35:50;13.77;;;7.28;;
64637;SDS011;51049;45.046;38.950;2023-06-04T07:38:16;15.25;;;9.20;;
64637;SDS011;51049;45.046;38.950;2023-06-04T07:40:44;10.40;;;4.53;;
64637;SDS011;51049;45.046;38.950;2023-06-04T07:43:10;11.85;;;6.57;;
64637;SDS011;51049;45.046;38.950;2023-06-04T07:45:36;12.07;;;7.32;;
64637;SDS011;51049;45.046;38.950;2023-06-04T07:48:02;16.00;;;8.15;;
64637;SDS011;51049;45.046;38.950;2023-06-04T07:50:29;8.88;;;4.60;;
64637;SDS011;51049;45.046;38.950;2023-06-04T07:52:55;10.88;;;6.25;;
64637;SDS011;51049;45.046;38.950;2023-06-04T07:55:21;9.63;;;5.97;;
64637;SDS011;51049;45.046;38.950;2023-06-04T07:57:47;7.93;;;4.45;;
64637;SDS011;51049;45.046;38.950;2023-06-04T08:00:13;11.80;;;7.10;;
64637;SDS011;51049;45.046;38.950;2023-06-04T08:02:40;13.82;;;6.90;;
64637;SDS011;51049;45.046;38.950;2023-06-04T08:05:06;16.15;;;6.22;;
64637;SDS011;51049;45.046;38.950;2023-06-04T08:07:32;9.77;;;5.72;;
64637;SDS011;51049;45.046;38.950;2023-06-04T08:09:58;13.52;;;6.35;;
64637;SDS011;51049;45.046;38.950;2023-06-04T08:12:24;11.48;;;6.00;;
64637;SDS011;51049;45.046;38.950;2023-06-04T08:14:49;11.90;;;6.13;;
64637;SDS011;51049;45.046;38.950;2023-06-04T08:17:15;17.95;;;6.47;;
64637;SDS011;51049;45.046;38.950;2023-06-04T08:19:41;9.00;;;5.07;;
64637;SDS011;51049;45.046;38.950;2023-06-04T08:22:07;10.80;;;5.13;;
64637;SDS011;51049;45.046;38.950;2023-06-04T08:24:36;11.02;;;5.40;;
64637;SDS011;51049;45.046;38.950;2023-06-04T08:27:02;12.25;;;5.28;;
64637;SDS011;51049;45.046;38.950;2023-06-04T08:29:28;10.93;;;6.18;;
64637;SDS011;51049;45.046;38.950;2023-06-04T08:31:54;9.73;;;5.85;;
64637;SDS011;51049;45.046;38.950;2023-06-04T08:34:20;9.98;;;5.30;;
64637;SDS011;51049;45.046;38.950;2023-06-04T08:36:46;12.00;;;6.07;;
64637;SDS011;51049;45.046;38.950;2023-06-04T08:39:12;12.45;;;6.43;;
64637;SDS011;51049;45.046;38.950;2023-06-04T08:41:40;9.45;;;5.65;;
64637;SDS011;51049;45.046;38.950;2023-06-04T08:44:15;13.40;;;7.13;;
64637;SDS011;51049;45.046;38.950;2023-06-04T08:46:43;10.50;;;6.80;;
64637;SDS011;51049;45.046;38.950;2023-06-04T08:49:10;11.00;;;6.75;;
64637;SDS011;51049;45.046;38.950;2023-06-04T08:51:38;11.00;;;6.78;;
64637;SDS011;51049;45.046;38.950;2023-06-04T08:54:06;11.40;;;6.75;;
64637;SDS011;51049;45.046;38.950;2023-06-04T08:56:35;14.43;;;5.90;;
64637;SDS011;51049;45.046;38.950;2023-06-04T08:59:02;12.73;;;7.18;;
64637;SDS011;51049;45.046;38.950;2023-06-04T09:01:31;12.02;;;7.10;;
64637;SDS011;51049;45.046;38.950;2023-06-04T09:04:03;11.82;;;6.93;;
64637;SDS011;51049;45.046;38.950;2023-06-04T09:08:57;13.75;;;7.47;;
64637;SDS011;51049;45.046;38.950;2023-06-04T09:11:33;14.98;;;8.05;;
64637;SDS011;51049;45.046;38.950;2023-06-04T09:14:03;13.75;;;7.32;;
64637;SDS011;51049;45.046;38.950;2023-06-04T09:16:33;15.63;;;8.18;;
64637;SDS011;51049;45.046;38.950;2023-06-04T09:19:11;14.95;;;7.63;;
64637;SDS011;51049;45.046;38.950;2023-06-04T09:21:47;14.95;;;7.63;;
64637;SDS011;51049;45.046;38.950;2023-06-04T09:24:23;17.88;;;8.52;;
64637;SDS011;51049;45.046;38.950;2023-06-04T09:27:13;14.80;;;8.23;;
64637;SDS011;51049;45.046;38.950;2023-06-04T09:29:48;17.77;;;8.25;;
64637;SDS011;51049;45.046;38.950;2023-06-04T09:34:48;12.32;;;6.45;;
64637;SDS011;51049;45.046;38.950;2023-06-04T09:37:15;16.25;;;8.25;;
64637;SDS011;51049;45.046;38.950;2023-06-04T09:39:43;18.05;;;9.05;;
64637;SDS011;51049;45.046;38.950;2023-06-04T09:42:10;13.07;;;7.40;;
64637;SDS011;51049;45.046;38.950;2023-06-04T09:44:42;12.90;;;6.45;;
64637;SDS011;51049;45.046;38.950;2023-06-04T09:47:10;14.20;;;8.00;;
64637;SDS011;51049;45.046;38.950;2023-06-04T09:49:46;17.13;;;8.98;;
64637;SDS011;51049;45.046;38.950;2023-06-04T09:52:14;16.58;;;8.55;;
64637;SDS011;51049;45.046;38.950;2023-06-04T09:54:40;16.13;;;7.93;;
64637;SDS011;51049;45.046;38.950;2023-06-04T09:57:16;21.98;;;9.57;;
64637;SDS011;51049;45.046;38.950;2023-06-04T09:59:44;19.67;;;8.45;;
64637;SDS011;51049;45.046;38.950;2023-06-04T10:02:11;17.27;;;7.90;;
64637;SDS011;51049;45.046;38.950;2023-06-04T10:04:41;17.48;;;8.88;;
64637;SDS011;51049;45.046;38.950;2023-06-04T10:07:09;14.30;;;7.57;;
64637;SDS011;51049;45.046;38.950;2023-06-04T10:09:38;11.55;;;7.10;;
64637;SDS011;51049;45.046;38.950;2023-06-04T10:12:13;15.43;;;7.40;;
64637;SDS011;51049;45.046;38.950;2023-06-04T10:14:48;15.07;;;7.13;;
64637;SDS011;51049;45.046;38.950;2023-06-04T10:17:18;14.45;;;7.53;;
64637;SDS011;51049;45.046;38.950;2023-06-04T10:19:47;13.75;;;6.90;;
64637;SDS011;51049;45.046;38.950;2023-06-04T10:22:17;12.80;;;7.07;;
64637;SDS011;51049;45.046;38.950;2023-06-04T10:24:43;18.55;;;6.72;;
64637;SDS011;51049;45.046;38.950;2023-06-04T10:27:10;10.43;;;5.45;;
64637;SDS011;51049;45.046;38.950;2023-06-04T10:29:41;11.95;;;6.72;;
64637;SDS011;51049;45.046;38.950;2023-06-04T10:32:08;12.40;;;6.28;;
64637;SDS011;51049;45.046;38.950;2023-06-04T10:34:34;11.13;;;6.00;;
64637;SDS011;51049;45.046;38.950;2023-06-04T10:37:01;11.07;;;6.60;;
64637;SDS011;51049;45.046;38.950;2023-06-04T10:39:28;12.95;;;7.35;;
64637;SDS011;51049;45.046;38.950;2023-06-04T10:42:06;14.90;;;7.45;;
64637;SDS011;51049;45.046;38.950;2023-06-04T10:44:43;14.05;;;7.47;;
64637;SDS011;51049;45.046;38.950;2023-06-04T10:47:23;14.05;;;7.10;;
64637;SDS011;51049;45.046;38.950;2023-06-04T10:50:06;12.45;;;6.47;;
64637;SDS011;51049;45.046;38.950;2023-06-04T10:52:33;12.65;;;7.00;;
64637;SDS011;51049;45.046;38.950;2023-06-04T10:55:05;13.32;;;7.47;;
64637;SDS011;51049;45.046;38.950;2023-06-04T10:57:34;11.95;;;6.72;;
64637;SDS011;51049;45.046;38.950;2023-06-04T11:00:00;12.50;;;6.15;;
64637;SDS011;51049;45.046;38.950;2023-06-04T11:02:31;13.18;;;6.88;;
64637;SDS011;51049;45.046;38.950;2023-06-04T11:05:03;14.13;;;6.50;;
64637;SDS011;51049;45.046;38.950;2023-06-04T11:07:44;11.13;;;6.60;;
64637;SDS011;51049;45.046;38.950;2023-06-04T11:10:15;10.68;;;5.22;;
64637;SDS011;51049;45.046;38.950;2023-06-04T11:12:48;10.60;;;5.82;;
64637;SDS011;51049;45.046;38.950;2023-06-04T11:15:18;12.73;;;6.05;;
64637;SDS011;51049;45.046;38.950;2023-06-04T11:17:50;10.98;;;6.05;;
64637;SDS011;51049;45.046;38.950;2023-06-04T11:20:18;19.00;;;5.93;;
64637;SDS011;51049;45.046;38.950;2023-06-04T11:22:54;9.40;;;5.53;;
64637;SDS011;51049;45.046;38.950;2023-06-04T11:25:25;12.05;;;5.93;;
64637;SDS011;51049;45.046;38.950;2023-06-04T11:27:52;10.85;;;5.75;;
64637;SDS011;51049;45.046;38.950;2023-06-04T11:30:19;9.90;;;5.22;;
64637;SDS011;51049;45.046;38.950;2023-06-04T11:32:45;10.95;;;5.35;;
64637;SDS011;51049;45.046;38.950;2023-06-04T11:35:11;10.82;;;5.97;;
64637;SDS011;51049;45.046;38.950;2023-06-04T11:37:38;9.50;;;4.97;;
64637;SDS011;51049;45.046;38.950;2023-06-04T11:40:19;11.13;;;5.82;;
64637;SDS011;51049;45.046;38.950;2023-06-04T11:45:18;10.68;;;5.15;;
64637;SDS011;51049;45.046;38.950;2023-06-04T11:47:52;11.00;;;4.90;;
64637;SDS011;51049;45.046;38.950;2023-06-04T11:50:21;11.10;;;5.75;;
64637;SDS011;51049;45.046;38.950;2023-06-04T11:52:47;13.02;;;5.30;;
64637;SDS011;51049;45.046;38.950;2023-06-04T11:55:14;8.93;;;4.90;;
64637;SDS011;51049;45.046;38.950;2023-06-04T11:57:42;10.43;;;4.78;;
64637;SDS011;51049;45.046;38.950;2023-06-04T12:00:09;6.60;;;4.22;;
64637;SDS011;51049;45.046;38.950;2023-06-04T12:02:49;10.57;;;4.80;;
64637;SDS011;51049;45.046;38.950;2023-06-04T12:05:23;7.57;;;4.60;;
64637;SDS011;51049;45.046;38.950;2023-06-04T12:08:03;7.35;;;4.25;;
64637;SDS011;51049;45.046;38.950;2023-06-04T12:10:36;11.45;;;4.82;;
64637;SDS011;51049;45.046;38.950;2023-06-04T12:13:04;10.23;;;4.43;;
64637;SDS011;51049;45.046;38.950;2023-06-04T12:15:30;8.82;;;4.43;;
64637;SDS011;51049;45.046;38.950;2023-06-04T12:17:56;7.28;;;4.20;;
64637;SDS011;51049;45.046;38.950;2023-06-04T12:20:32;6.45;;;3.53;;
64637;SDS011;51049;45.046;38.950;2023-06-04T12:23:02;8.87;;;4.40;;
64637;SDS011;51049;45.046;38.950;2023-06-04T12:25:30;6.07;;;3.78;;
64637;SDS011;51049;45.046;38.950;2023-06-04T12:27:56;7.65;;;3.75;;
64637;SDS011;51049;45.046;38.950;2023-06-04T12:30:22;7.13;;;3.47;;
64637;SDS011;51049;45.046;38.950;2023-06-04T12:32:48;8.52;;;3.88;;
64637;SDS011;51049;45.046;38.950;2023-06-04T12:35:16;7.95;;;3.55;;
64637;SDS011;51049;45.046;38.950;2023-06-04T12:37:42;6.65;;;3.92;;
64637;SDS011;51049;45.046;38.950;2023-06-04T12:40:08;6.03;;;3.50;;
64637;SDS011;51049;45.046;38.950;2023-06-04T12:42:34;7.95;;;3.78;;
64637;SDS011;51049;45.046;38.950;2023-06-04T12:45:00;10.50;;;3.88;;
64637;SDS011;51049;45.046;38.950;2023-06-04T12:47:26;6.82;;;3.65;;
64637;SDS011;51049;45.046;38.950;2023-06-04T12:49:52;7.85;;;4.03;;
64637;SDS011;51049;45.046;38.950;2023-06-04T12:52:18;8.60;;;3.97;;
64637;SDS011;51049;45.046;38.950;2023-06-04T12:54:44;9.48;;;4.05;;
64637;SDS011;51049;45.046;38.950;2023-06-04T12:57:10;10.43;;;4.15;;
64637;SDS011;51049;45.046;38.950;2023-06-04T12:59:36;9.57;;;5.15;;
64637;SDS011;51049;45.046;38.950;2023-06-04T13:02:02;9.93;;;3.70;;
64637;SDS011;51049;45.046;38.950;2023-06-04T13:04:28;7.32;;;4.07;;
64637;SDS011;51049;45.046;38.950;2023-06-04T13:06:55;9.60;;;5.00;;
64637;SDS011;51049;45.046;38.950;2023-06-04T13:09:24;7.90;;;4.28;;
64637;SDS011;51049;45.046;38.950;2023-06-04T13:11:53;8.50;;;4.40;;
64637;SDS011;51049;45.046;38.950;2023-06-04T13:14:19;7.85;;;4.20;;
64637;SDS011;51049;45.046;38.950;2023-06-04T13:16:45;7.03;;;3.72;;
64637;SDS011;51049;45.046;38.950;2023-06-04T13:19:14;12.50;;;3.58;;
64637;SDS011;51049;45.046;38.950;2023-06-04T13:21:40;9.00;;;3.95;;
64637;SDS011;51049;45.046;38.950;2023-06-04T13:24:05;6.85;;;3.80;;
64637;SDS011;51049;45.046;38.950;2023-06-04T13:26:32;9.40;;;3.85;;
64637;SDS011;51049;45.046;38.950;2023-06-04T13:28:59;5.47;;;3.35;;
64637;SDS011;51049;45.046;38.950;2023-06-04T13:31:24;4.95;;;3.20;;
64637;SDS011;51049;45.046;38.950;2023-06-04T13:33:50;6.75;;;3.60;;
64637;SDS011;51049;45.046;38.950;2023-06-04T13:36:16;6.57;;;3.95;;
64637;SDS011;51049;45.046;38.950;2023-06-04T13:38:42;12.05;;;4.28;;
64637;SDS011;51049;45.046;38.950;2023-06-04T13:41:08;6.97;;;3.58;;
64637;SDS011;51049;45.046;38.950;2023-06-04T13:43:35;7.60;;;3.60;;
64637;SDS011;51049;45.046;38.950;2023-06-04T13:46:00;6.07;;;3.35;;
64637;SDS011;51049;45.046;38.950;2023-06-04T13:48:27;7.63;;;3.28;;
64637;SDS011;51049;45.046;38.950;2023-06-04T13:50:53;6.47;;;3.33;;
64637;SDS011;51049;45.046;38.950;2023-06-04T13:53:19;6.25;;;3.92;;
64637;SDS011;51049;45.046;38.950;2023-06-04T13:55:45;6.53;;;3.22;;
64637;SDS011;51049;45.046;38.950;2023-06-04T13:58:11;7.57;;;3.63;;
64637;SDS011;51049;45.046;38.950;2023-06-04T14:00:37;6.05;;;3.20;;
64637;SDS011;51049;45.046;38.950;2023-06-04T14:03:03;5.88;;;3.15;;
64637;SDS011;51049;45.046;38.950;2023-06-04T14:05:29;7.18;;;3.05;;
64637;SDS011;51049;45.046;38.950;2023-06-04T14:07:57;6.15;;;3.47;;
64637;SDS011;51049;45.046;38.950;2023-06-04T14:10:23;7.50;;;3.50;;
64637;SDS011;51049;45.046;38.950;2023-06-04T14:12:49;8.10;;;3.20;;
64637;SDS011;51049;45.046;38.950;2023-06-04T14:15:15;7.68;;;3.60;;
64637;SDS011;51049;45.046;38.950;2023-06-04T14:17:41;8.45;;;3.95;;
64637;SDS011;51049;45.046;38.950;2023-06-04T14:20:08;7.13;;;3.25;;
64637;SDS011;51049;45.046;38.950;2023-06-04T14:22:34;8.95;;;3.63;;
64637;SDS011;51049;45.046;38.950;2023-06-04T14:25:02;8.02;;;3.70;;
64637;SDS011;51049;45.046;38.950;2023-06-04T14:27:28;8.13;;;3.83;;
64637;SDS011;51049;45.046;38.950;2023-06-04T14:29:54;5.97;;;3.72;;
64637;SDS011;51049;45.046;38.950;2023-06-04T14:32:20;10.60;;;4.65;;
64637;SDS011;51049;45.046;38.950;2023-06-04T14:34:46;8.35;;;3.90;;
64637;SDS011;51049;45.046;38.950;2023-06-04T14:37:12;8.85;;;4.32;;
64637;SDS011;51049;45.046;38.950;2023-06-04T14:39:38;6.47;;;4.18;;
64637;SDS011;51049;45.046;38.950;2023-06-04T14:42:04;9.48;;;4.43;;
64637;SDS011;51049;45.046;38.950;2023-06-04T14:44:30;11.40;;;4.68;;